首页
METAR-TAF:

METAR-TAF

机场 :

Ottawa, 堪薩斯州, 美国

纬度: 38-32-20N, 经度: 095-15-10W, 海拔: 295米

当前天气观测

该预报发布于24分钟前的20:55 UTC
风速12节,风向
温度 11°C
湿度 32%
气压 1027 hPa
能見度: 14.5公里
天空无云

METAR: KOWI 112055Z AUTO 18012KT 9SM CLR 11/M05 A3032 RMK AO2

时间: 15:19 (21:19 UTC)


TAF: 丢失

超过4000个机场的气象观测和天气预报(METAR&TAF报告)。

可查询的气象台以黄色和红色小点在地图上表示。

将鼠标移到小点上方,可查看气象台名称。

然后点击查看天气观测和预报。

如需切换地图:点击带黑十字的绿色按钮放大地图;点击带横线的绿色按钮缩小地图;或者点击绿色箭头查看邻近地区的地图。


METAR-TAF: